Suffolk, Texas
Current Conditions -  °F | °C
As of 12:55 PM on Friday 31 Oct 2014 (Local Time) from KOSA Reporting Station
Clear Clear  
Wind Chill: 66°   Ceiling: Unl
Heat Index: 66°   Visibility: 10mi
Dew Point: 41°   Wind: 14mph
Humidity: 41%   Direction: 340°NNW
Pressure: 30.27"   Gusts: 21mph
Location:  32.7353°N, 94.9492°W
Report Text: KOSA 311755Z AUTO 34012G18KT 10SM CLR 19/05 A3027 RMK AO1 T01880052 10188 20106
Loading
Personal Weather Stations






























Interactive Weather Map
Tropical Storm Tracking
New forecast layout! Learn more

10-Day Weather Forecast

Advertisements
Track Severe Weather on mobile